createdAt,value
2023-07-27T00:00:43.534Z,22.00
2023-07-27T00:02:15.573Z,22.01
2023-07-27T00:03:47.419Z,21.99
2023-07-27T00:05:19.017Z,21.94
2023-07-27T00:06:50.855Z,21.93
2023-07-27T00:08:22.519Z,21.92
2023-07-27T00:09:54.204Z,21.97
2023-07-27T00:11:26.006Z,22.03
2023-07-27T00:12:57.727Z,22.08
2023-07-27T00:14:29.471Z,22.12
2023-07-27T00:16:01.010Z,22.17
2023-07-27T00:17:32.838Z,22.17
2023-07-27T00:19:04.741Z,22.19
2023-07-27T00:20:36.500Z,22.21
2023-07-27T00:22:08.116Z,22.19
2023-07-27T00:23:40.234Z,22.20
2023-07-27T00:25:11.838Z,22.25
2023-07-27T00:26:44.052Z,22.31
2023-07-27T00:28:15.726Z,22.35
2023-07-27T00:29:47.413Z,22.31
2023-07-27T00:31:19.166Z,22.32
2023-07-27T00:32:50.939Z,22.30
2023-07-27T00:34:22.619Z,22.25
2023-07-27T00:35:54.860Z,22.25
2023-07-27T00:37:26.525Z,22.22
2023-07-27T00:38:58.195Z,22.19
2023-07-27T00:40:29.986Z,22.19
2023-07-27T00:42:01.949Z,22.17
2023-07-27T00:43:33.924Z,22.15
2023-07-27T00:45:05.794Z,22.14
2023-07-27T00:46:38.240Z,22.13
2023-07-27T00:48:13.145Z,22.14
2023-07-27T00:49:45.293Z,22.15
2023-07-27T00:51:16.891Z,22.18
2023-07-27T00:52:48.598Z,22.18
2023-07-27T00:54:20.546Z,22.17
2023-07-27T00:55:52.797Z,22.03
2023-07-27T00:57:24.887Z,21.86
2023-07-27T00:58:56.590Z,21.66
2023-07-27T01:00:28.368Z,21.44
2023-07-27T01:01:59.979Z,21.32
2023-07-27T01:03:32.377Z,21.23
2023-07-27T01:05:04.175Z,21.17
2023-07-27T01:06:36.007Z,21.12
2023-07-27T01:08:08.097Z,21.08
2023-07-27T01:09:39.684Z,21.00
2023-07-27T01:11:14.190Z,20.92
2023-07-27T01:13:04.063Z,20.86
2023-07-27T01:14:42.581Z,20.87
2023-07-27T01:16:15.914Z,20.82
2023-07-27T01:17:50.306Z,20.71
2023-07-27T01:19:28.274Z,20.66
2023-07-27T01:21:02.830Z,20.62
2023-07-27T01:22:34.681Z,20.57
2023-07-27T01:24:24.611Z,20.53
2023-07-27T01:26:15.100Z,20.52
2023-07-27T01:27:57.986Z,20.48
2023-07-27T01:29:38.736Z,20.50
2023-07-27T01:31:10.935Z,20.51
2023-07-27T01:32:42.637Z,20.52
2023-07-27T01:34:33.988Z,20.55
2023-07-27T01:36:11.852Z,20.52
2023-07-27T01:37:43.498Z,20.46
2023-07-27T01:39:15.563Z,20.42
2023-07-27T01:40:47.585Z,20.31
2023-07-27T01:42:19.145Z,20.13
2023-07-27T01:43:50.837Z,20.07
2023-07-27T01:45:22.526Z,20.06
2023-07-27T01:46:54.403Z,19.97
2023-07-27T01:48:27.225Z,19.84
2023-07-27T01:49:58.884Z,19.80
2023-07-27T01:51:30.553Z,19.79
2023-07-27T01:53:02.421Z,19.67
2023-07-27T01:54:34.067Z,19.58
2023-07-27T01:56:06.578Z,19.57
2023-07-27T01:57:38.214Z,19.53
2023-07-27T01:59:10.222Z,19.42
2023-07-27T02:00:41.966Z,19.36
2023-07-27T02:02:14.662Z,19.33
2023-07-27T02:03:47.089Z,19.37
2023-07-27T02:05:18.805Z,19.37
2023-07-27T02:06:52.826Z,19.38
2023-07-27T02:08:25.088Z,19.40
2023-07-27T02:09:56.772Z,19.44
2023-07-27T02:11:28.397Z,19.51
2023-07-27T02:13:03.724Z,19.58
2023-07-27T02:14:42.142Z,19.63
2023-07-27T02:16:18.974Z,19.68
2023-07-27T02:17:55.389Z,19.75
2023-07-27T02:19:35.837Z,19.79
2023-07-27T02:21:07.987Z,19.84
2023-07-27T02:22:40.328Z,19.89
2023-07-27T02:24:12.133Z,19.96
2023-07-27T02:25:43.704Z,20.01
2023-07-27T02:27:15.501Z,20.03
2023-07-27T02:28:47.809Z,20.05
2023-07-27T02:30:19.482Z,20.10
2023-07-27T02:31:51.414Z,20.14
2023-07-27T02:33:23.029Z,20.15
2023-07-27T02:34:54.985Z,20.19
2023-07-27T02:36:26.942Z,20.18
2023-07-27T02:37:58.642Z,20.17
2023-07-27T02:39:30.458Z,20.14
2023-07-27T02:41:02.323Z,20.13
2023-07-27T02:42:33.981Z,20.15
2023-07-27T02:44:05.667Z,20.16
2023-07-27T02:45:37.594Z,20.21
2023-07-27T02:47:09.624Z,20.22
2023-07-27T02:48:41.245Z,20.20
2023-07-27T02:50:13.170Z,20.17
2023-07-27T02:51:44.752Z,20.15
2023-07-27T02:53:16.660Z,20.14
2023-07-27T02:54:48.657Z,20.15
2023-07-27T02:56:20.895Z,20.18
2023-07-27T02:57:52.548Z,20.24
2023-07-27T02:59:24.428Z,20.23
2023-07-27T03:00:57.534Z,20.25
2023-07-27T03:02:29.418Z,20.25
2023-07-27T03:04:01.110Z,20.24
2023-07-27T03:05:32.697Z,20.23
2023-07-27T03:07:04.548Z,20.22
2023-07-27T03:08:39.308Z,20.21
2023-07-27T03:10:11.078Z,20.22
2023-07-27T03:11:42.832Z,20.24
2023-07-27T03:13:14.474Z,20.23
2023-07-27T03:14:46.211Z,20.22
2023-07-27T03:16:17.960Z,20.21
2023-07-27T03:17:49.969Z,20.20
2023-07-27T03:19:21.656Z,20.23
2023-07-27T03:20:53.383Z,20.24
2023-07-27T03:22:25.066Z,20.19
2023-07-27T03:23:56.694Z,20.17
2023-07-27T03:25:33.036Z,20.11
2023-07-27T03:27:04.805Z,20.10
2023-07-27T03:28:36.377Z,20.07
2023-07-27T03:30:08.366Z,20.06
2023-07-27T03:31:40.070Z,20.06
2023-07-27T03:33:11.991Z,20.07
2023-07-27T03:34:43.661Z,20.08
2023-07-27T03:36:16.380Z,20.06
2023-07-27T03:37:48.258Z,20.07
2023-07-27T03:39:19.945Z,20.07
2023-07-27T03:40:51.747Z,20.03
2023-07-27T03:42:23.316Z,19.99
2023-07-27T03:43:55.006Z,19.97
2023-07-27T03:45:26.811Z,19.97
2023-07-27T03:46:58.581Z,19.95
2023-07-27T03:48:30.516Z,19.93
2023-07-27T03:50:02.433Z,19.90
2023-07-27T03:51:34.415Z,19.93
2023-07-27T03:53:06.697Z,19.93
2023-07-27T03:54:38.510Z,19.94
2023-07-27T03:56:10.248Z,19.98
2023-07-27T03:57:43.125Z,20.02
2023-07-27T03:59:14.819Z,20.04
2023-07-27T04:00:46.877Z,20.06
2023-07-27T04:02:18.562Z,20.09
2023-07-27T04:03:50.233Z,20.10
2023-07-27T04:05:22.722Z,20.08
2023-07-27T04:06:54.541Z,20.09
2023-07-27T04:08:26.796Z,20.07
2023-07-27T04:09:59.905Z,20.05
2023-07-27T04:11:35.047Z,20.05
2023-07-27T04:13:06.853Z,20.04
2023-07-27T04:14:38.918Z,20.02
2023-07-27T04:16:10.798Z,19.99
2023-07-27T04:17:43.110Z,19.94
2023-07-27T04:19:14.736Z,19.89
2023-07-27T04:20:46.697Z,19.81
2023-07-27T04:22:18.494Z,19.81
2023-07-27T04:23:51.135Z,19.84
2023-07-27T04:25:23.261Z,19.83
2023-07-27T04:26:54.950Z,19.81
2023-07-27T04:28:26.733Z,19.81
2023-07-27T04:29:58.581Z,19.79
2023-07-27T04:31:30.389Z,19.79
2023-07-27T04:33:02.255Z,19.79
2023-07-27T04:34:34.801Z,19.81
2023-07-27T04:36:06.421Z,19.81
2023-07-27T04:37:38.803Z,19.85
2023-07-27T04:39:10.647Z,19.85
2023-07-27T04:40:42.271Z,19.87
2023-07-27T04:42:14.000Z,19.89
2023-07-27T04:43:45.558Z,19.90
2023-07-27T04:45:17.209Z,19.89
2023-07-27T04:46:48.990Z,19.89
2023-07-27T04:48:20.680Z,19.88
2023-07-27T04:49:52.353Z,19.87
2023-07-27T04:51:24.281Z,19.83
2023-07-27T04:52:56.098Z,19.82
2023-07-27T04:54:27.801Z,19.79
2023-07-27T04:55:59.641Z,19.76
2023-07-27T04:57:31.565Z,19.74
2023-07-27T04:59:03.761Z,19.72
2023-07-27T05:00:35.841Z,19.69
2023-07-27T05:02:07.451Z,19.73
2023-07-27T05:03:39.001Z,19.74
2023-07-27T05:05:10.594Z,19.75
2023-07-27T05:06:42.388Z,19.74
2023-07-27T05:08:14.982Z,19.72
2023-07-27T05:09:46.880Z,19.71
2023-07-27T05:11:18.467Z,19.71
2023-07-27T05:12:50.329Z,19.59
2023-07-27T05:14:22.039Z,19.51
2023-07-27T05:15:53.700Z,19.46
2023-07-27T05:17:25.397Z,19.43
2023-07-27T05:18:59.036Z,19.40
2023-07-27T05:20:30.977Z,19.37
2023-07-27T05:22:03.016Z,19.37
2023-07-27T05:23:34.894Z,19.37
2023-07-27T05:25:07.166Z,19.39
2023-07-27T05:26:39.561Z,19.40
2023-07-27T05:28:12.069Z,19.40
2023-07-27T05:29:43.836Z,19.42
2023-07-27T05:31:15.780Z,19.45
2023-07-27T05:32:47.993Z,19.47
2023-07-27T05:34:19.962Z,19.47
2023-07-27T05:35:52.256Z,19.48
2023-07-27T05:37:24.710Z,19.48
2023-07-27T05:38:56.582Z,19.46
2023-07-27T05:40:28.263Z,19.47
2023-07-27T05:41:59.994Z,19.44
2023-07-27T05:43:31.687Z,19.47
2023-07-27T05:45:03.504Z,19.45
2023-07-27T05:46:35.438Z,19.43
2023-07-27T05:48:08.060Z,19.42
2023-07-27T05:49:39.827Z,19.43
2023-07-27T05:51:11.706Z,19.45
2023-07-27T05:52:44.739Z,19.45
2023-07-27T05:54:17.369Z,19.46
2023-07-27T05:55:49.358Z,19.52
2023-07-27T05:57:21.032Z,19.56
2023-07-27T05:58:52.910Z,19.63
2023-07-27T06:00:24.669Z,19.69
2023-07-27T06:01:56.527Z,19.75
2023-07-27T06:03:31.764Z,19.82
2023-07-27T06:05:04.833Z,19.94
2023-07-27T06:06:37.772Z,20.07
2023-07-27T06:08:09.930Z,20.23
2023-07-27T06:09:41.520Z,20.44
2023-07-27T06:11:13.435Z,20.67
2023-07-27T06:12:45.328Z,20.85
2023-07-27T06:14:17.087Z,20.99
2023-07-27T06:15:49.228Z,21.10
2023-07-27T06:17:20.962Z,21.23
2023-07-27T06:18:52.927Z,21.32
2023-07-27T06:20:24.743Z,21.50
2023-07-27T06:21:56.583Z,21.66
2023-07-27T06:23:29.601Z,21.85
2023-07-27T06:25:01.497Z,22.06
2023-07-27T06:27:57.973Z,22.26
2023-07-27T06:29:31.397Z,22.54
2023-07-27T06:31:03.520Z,22.63
2023-07-27T06:32:35.752Z,22.68
2023-07-27T06:34:07.864Z,22.65
2023-07-27T06:35:39.590Z,22.58
2023-07-27T06:37:11.396Z,22.46
2023-07-27T06:38:43.400Z,22.37
2023-07-27T06:40:15.122Z,22.34
2023-07-27T06:41:46.887Z,22.27
2023-07-27T06:43:18.557Z,22.22
2023-07-27T06:44:50.286Z,22.20
2023-07-27T06:46:22.072Z,22.28
2023-07-27T06:47:53.912Z,22.41
2023-07-27T06:49:25.940Z,22.62
2023-07-27T06:50:58.846Z,22.73
2023-07-27T06:52:31.532Z,22.79
2023-07-27T06:54:03.942Z,22.67
2023-07-27T06:55:36.558Z,22.63
2023-07-27T06:57:13.155Z,22.70
2023-07-27T06:58:44.858Z,22.75
2023-07-27T07:00:16.978Z,22.83
2023-07-27T07:01:49.008Z,22.91
2023-07-27T07:03:20.653Z,22.98
2023-07-27T07:04:52.399Z,23.04
2023-07-27T07:06:24.021Z,23.13
2023-07-27T07:07:55.790Z,23.26
2023-07-27T07:09:27.559Z,23.31
2023-07-27T07:11:00.373Z,23.30
2023-07-27T07:12:32.318Z,23.30
2023-07-27T07:14:04.239Z,23.31
2023-07-27T07:15:35.965Z,23.28
2023-07-27T07:17:08.243Z,23.16
2023-07-27T07:18:40.427Z,23.04
2023-07-27T07:20:12.618Z,22.98
2023-07-27T07:21:44.997Z,23.06
2023-07-27T07:23:17.240Z,23.05
2023-07-27T07:24:49.077Z,23.12
2023-07-27T07:26:21.579Z,23.21
2023-07-27T07:27:53.602Z,23.37
2023-07-27T07:29:25.812Z,23.48
2023-07-27T07:30:58.068Z,23.70
2023-07-27T07:32:30.182Z,23.96
2023-07-27T07:34:02.777Z,24.16
2023-07-27T07:35:39.878Z,24.35
2023-07-27T07:37:11.845Z,24.43
2023-07-27T07:38:43.797Z,24.55
2023-07-27T07:40:18.234Z,24.67
2023-07-27T07:41:50.161Z,24.84
2023-07-27T07:43:21.869Z,25.01
2023-07-27T07:44:54.036Z,25.08
2023-07-27T07:46:26.264Z,24.98
2023-07-27T07:47:58.483Z,24.90
2023-07-27T07:49:33.993Z,24.63
2023-07-27T07:51:11.956Z,24.52
2023-07-27T07:52:43.597Z,24.32
2023-07-27T07:54:15.566Z,24.19
2023-07-27T07:55:47.434Z,24.19
2023-07-27T07:57:21.764Z,24.22
2023-07-27T07:58:53.398Z,24.37
2023-07-27T08:00:25.509Z,24.51
2023-07-27T08:01:57.504Z,24.65
2023-07-27T08:03:29.287Z,24.73
2023-07-27T08:05:01.170Z,24.70
2023-07-27T08:06:34.279Z,24.59
2023-07-27T08:08:06.366Z,24.60
2023-07-27T08:09:38.273Z,24.70
2023-07-27T08:11:11.089Z,24.78
2023-07-27T08:12:45.110Z,24.81
2023-07-27T08:14:16.896Z,24.78
2023-07-27T08:15:54.402Z,24.84
2023-07-27T08:17:28.452Z,24.76
2023-07-27T08:19:00.318Z,24.52
2023-07-27T08:20:32.340Z,24.26
2023-07-27T08:22:06.096Z,23.92
2023-07-27T08:23:38.206Z,23.66
2023-07-27T08:25:20.741Z,23.46
2023-07-27T08:26:53.774Z,23.34
2023-07-27T08:28:25.546Z,23.33
2023-07-27T08:29:57.370Z,23.38
2023-07-27T08:31:29.267Z,23.46
2023-07-27T08:33:00.950Z,23.49
2023-07-27T08:34:32.910Z,23.55
2023-07-27T08:36:05.679Z,23.48
2023-07-27T08:37:38.016Z,23.48
2023-07-27T08:39:09.781Z,23.53
2023-07-27T08:40:41.686Z,23.70
2023-07-27T08:42:14.427Z,23.88
2023-07-27T08:43:46.834Z,23.96
2023-07-27T08:45:21.379Z,24.01
2023-07-27T08:47:05.623Z,24.12
2023-07-27T08:48:37.476Z,24.15
2023-07-27T08:50:09.616Z,24.21
2023-07-27T08:51:43.526Z,24.36
2023-07-27T08:53:15.491Z,24.57
2023-07-27T08:54:48.569Z,24.80
2023-07-27T08:56:20.912Z,25.03
2023-07-27T08:57:52.489Z,25.28
2023-07-27T08:59:25.649Z,25.41
2023-07-27T09:00:57.639Z,25.53
2023-07-27T09:02:29.375Z,25.61
2023-07-27T09:04:02.129Z,25.68
2023-07-27T09:05:46.846Z,25.80
2023-07-27T09:07:20.178Z,25.75
2023-07-27T09:08:51.994Z,25.79
2023-07-27T09:10:23.809Z,25.67
2023-07-27T09:11:55.987Z,25.41
2023-07-27T09:13:31.733Z,25.22
2023-07-27T09:15:16.780Z,25.08
2023-07-27T09:16:49.324Z,24.85
2023-07-27T09:18:21.140Z,24.66
2023-07-27T09:19:55.157Z,24.72
2023-07-27T09:21:27.746Z,24.84
2023-07-27T09:22:59.726Z,25.03
2023-07-27T09:24:32.570Z,25.23
2023-07-27T09:26:04.416Z,25.44
2023-07-27T09:27:44.170Z,25.57
2023-07-27T09:29:16.657Z,25.74
2023-07-27T09:30:48.578Z,25.91
2023-07-27T09:32:20.312Z,26.10
2023-07-27T09:33:52.405Z,26.24
2023-07-27T09:35:24.570Z,26.29
2023-07-27T09:36:57.354Z,26.31
2023-07-27T09:38:29.397Z,26.31
2023-07-27T09:40:09.462Z,26.37
2023-07-27T09:41:43.525Z,26.44
2023-07-27T09:43:15.148Z,26.50
2023-07-27T09:44:48.467Z,26.46
2023-07-27T09:46:23.929Z,26.48
2023-07-27T09:47:55.681Z,26.58
2023-07-27T09:49:27.464Z,26.61
2023-07-27T09:50:59.990Z,26.49
2023-07-27T09:52:31.893Z,26.46
2023-07-27T09:54:03.736Z,26.33
2023-07-27T09:55:35.723Z,26.17
2023-07-27T09:57:08.061Z,26.09
2023-07-27T09:58:41.080Z,26.01
2023-07-27T10:00:13.361Z,25.96
2023-07-27T10:01:45.139Z,26.03
2023-07-27T10:03:17.209Z,26.08
2023-07-27T10:04:52.127Z,26.08
2023-07-27T10:06:24.349Z,26.19
2023-07-27T10:07:56.279Z,26.26
2023-07-27T10:09:28.342Z,26.41
2023-07-27T10:11:00.783Z,26.52
2023-07-27T10:12:32.882Z,26.61
2023-07-27T10:14:20.199Z,26.68
2023-07-27T10:15:56.147Z,26.78
2023-07-27T10:17:41.637Z,26.92
2023-07-27T10:19:13.726Z,27.13
2023-07-27T10:20:45.689Z,27.28
2023-07-27T10:22:19.162Z,27.46
2023-07-27T10:24:00.556Z,27.61
2023-07-27T10:25:50.753Z,27.58
2023-07-27T10:27:22.505Z,27.66
2023-07-27T10:28:54.424Z,27.74
2023-07-27T10:30:26.790Z,27.86
2023-07-27T10:32:05.349Z,28.00
2023-07-27T10:33:37.546Z,28.10
2023-07-27T10:35:10.141Z,28.01
2023-07-27T10:37:01.153Z,27.81
2023-07-27T10:38:33.993Z,27.74
2023-07-27T10:40:06.682Z,27.65
2023-07-27T10:41:38.667Z,27.61
2023-07-27T10:43:10.855Z,27.67
2023-07-27T10:44:53.932Z,27.72
2023-07-27T10:46:31.833Z,27.80
2023-07-27T10:48:05.640Z,27.87
2023-07-27T10:49:41.827Z,27.91
2023-07-27T10:51:14.346Z,28.01
2023-07-27T10:52:46.113Z,28.13
2023-07-27T10:54:18.012Z,28.15
2023-07-27T10:55:49.807Z,28.24
2023-07-27T10:57:22.360Z,28.31
2023-07-27T10:58:57.930Z,28.36
2023-07-27T11:00:36.167Z,28.36
2023-07-27T11:02:12.186Z,28.23
2023-07-27T11:03:44.057Z,27.94
2023-07-27T11:05:16.201Z,27.69
2023-07-27T11:06:48.740Z,27.45
2023-07-27T11:08:20.824Z,27.34
2023-07-27T11:09:52.942Z,27.38
2023-07-27T11:11:28.844Z,27.39
2023-07-27T11:13:00.740Z,27.36
2023-07-27T11:14:32.692Z,27.28
2023-07-27T11:16:04.454Z,27.30
2023-07-27T11:17:36.547Z,27.27
2023-07-27T11:19:09.334Z,27.36
2023-07-27T11:20:41.961Z,27.46
2023-07-27T11:22:14.953Z,27.45
2023-07-27T11:23:47.679Z,27.38
2023-07-27T11:25:20.179Z,27.23
2023-07-27T11:26:52.348Z,27.25
2023-07-27T11:28:24.839Z,27.31
2023-07-27T11:30:00.961Z,27.36
2023-07-27T11:31:32.874Z,27.29
2023-07-27T11:33:05.931Z,27.20
2023-07-27T11:34:38.731Z,27.14
2023-07-27T11:36:12.620Z,26.98
2023-07-27T11:37:45.118Z,26.96
2023-07-27T11:39:17.935Z,27.03
2023-07-27T11:40:50.298Z,27.07
2023-07-27T11:42:29.004Z,27.08
2023-07-27T11:44:01.632Z,27.19
2023-07-27T11:45:33.993Z,27.28
2023-07-27T11:47:06.227Z,27.24
2023-07-27T11:48:38.583Z,27.30
2023-07-27T11:50:11.039Z,27.40
2023-07-27T11:51:43.423Z,27.60
2023-07-27T11:53:26.209Z,27.85
2023-07-27T11:55:05.766Z,28.14
2023-07-27T11:56:38.162Z,28.19
2023-07-27T11:58:10.732Z,28.20
2023-07-27T11:59:42.546Z,28.20
2023-07-27T12:01:15.050Z,28.11
2023-07-27T12:02:50.363Z,28.05
2023-07-27T12:04:22.677Z,28.17
2023-07-27T12:05:55.803Z,28.24
2023-07-27T12:08:07.984Z,28.15
2023-07-27T12:09:28.910Z,28.02
2023-07-27T12:11:03.669Z,27.90
2023-07-27T12:14:10.854Z,27.85
2023-07-27T12:16:18.541Z,27.89
2023-07-27T12:17:36.982Z,27.89
2023-07-27T12:19:09.419Z,27.91
2023-07-27T12:28:42.023Z,27.60
2023-07-27T12:33:27.417Z,27.83
2023-07-27T12:36:34.339Z,28.24
2023-07-27T12:39:41.153Z,28.40
2023-07-27T12:41:12.968Z,28.49
2023-07-27T12:42:45.478Z,28.66
2023-07-27T12:44:17.502Z,28.85
2023-07-27T12:45:49.937Z,29.00
2023-07-27T12:47:21.825Z,28.98
2023-07-27T12:48:54.019Z,28.87
2023-07-27T12:50:26.608Z,28.70
2023-07-27T12:51:58.390Z,28.56
2023-07-27T12:53:30.361Z,28.45
2023-07-27T12:55:03.765Z,28.44
2023-07-27T12:56:36.428Z,28.45
2023-07-27T12:58:08.174Z,28.50
2023-07-27T12:59:41.809Z,28.57
2023-07-27T13:01:13.587Z,28.58
2023-07-27T13:02:45.450Z,28.58
2023-07-27T13:04:17.357Z,28.54
2023-07-27T13:05:49.070Z,28.49
2023-07-27T13:07:21.401Z,28.27
2023-07-27T13:08:53.352Z,28.26
2023-07-27T13:10:25.453Z,28.32
2023-07-27T13:11:57.420Z,28.43
2023-07-27T13:13:29.614Z,28.53
2023-07-27T13:15:03.658Z,28.60
2023-07-27T13:16:35.604Z,28.59
2023-07-27T13:18:07.487Z,28.59
2023-07-27T13:19:39.375Z,28.58
2023-07-27T13:21:11.307Z,28.49
2023-07-27T13:22:43.322Z,28.38
2023-07-27T13:24:15.065Z,28.33
2023-07-27T13:25:47.474Z,28.36
2023-07-27T13:27:19.741Z,28.45
2023-07-27T13:28:51.371Z,28.57
2023-07-27T13:30:23.096Z,28.65
2023-07-27T13:31:55.041Z,28.76
2023-07-27T13:33:27.057Z,28.87
2023-07-27T13:34:59.566Z,28.90
2023-07-27T13:36:34.160Z,28.81
2023-07-27T13:38:06.294Z,28.64
2023-07-27T13:39:39.563Z,28.43
2023-07-27T13:41:11.222Z,28.36
2023-07-27T13:42:42.930Z,28.27
2023-07-27T13:44:14.549Z,28.22
2023-07-27T13:45:47.326Z,28.11
2023-07-27T13:47:19.127Z,28.04
2023-07-27T13:48:50.744Z,27.85
2023-07-27T13:50:22.691Z,27.75
2023-07-27T13:51:54.613Z,27.75
2023-07-27T13:53:26.491Z,27.80
2023-07-27T13:54:58.478Z,27.67
2023-07-27T13:56:30.931Z,27.71
2023-07-27T13:58:02.839Z,27.79
2023-07-27T13:59:34.565Z,27.98
2023-07-27T14:01:06.221Z,28.04
2023-07-27T14:02:38.055Z,28.13
2023-07-27T14:04:10.117Z,28.25
2023-07-27T14:05:41.740Z,28.17
2023-07-27T14:07:13.693Z,28.13
2023-07-27T14:08:45.526Z,28.16
2023-07-27T14:10:17.469Z,28.20
2023-07-27T14:11:49.835Z,28.27
2023-07-27T14:13:21.735Z,28.28
2023-07-27T14:14:53.663Z,28.28
2023-07-27T14:16:25.681Z,28.30
2023-07-27T14:17:57.838Z,28.26
2023-07-27T14:19:29.710Z,28.01
2023-07-27T14:21:01.459Z,27.79
2023-07-27T14:22:36.595Z,27.58
2023-07-27T14:24:08.542Z,27.48
2023-07-27T14:25:40.267Z,27.50
2023-07-27T14:27:12.284Z,27.49
2023-07-27T14:28:44.143Z,27.47
2023-07-27T14:30:15.835Z,27.51
2023-07-27T14:31:47.652Z,27.49
2023-07-27T14:33:19.535Z,27.43
2023-07-27T14:34:51.294Z,27.41
2023-07-27T14:36:23.393Z,27.47
2023-07-27T14:37:55.150Z,27.52
2023-07-27T14:39:48.408Z,27.57
2023-07-27T14:41:18.705Z,27.58
2023-07-27T14:42:50.995Z,27.69
2023-07-27T14:44:22.612Z,27.77
2023-07-27T14:45:54.472Z,27.82
2023-07-27T14:47:26.641Z,27.89
2023-07-27T14:48:58.266Z,27.92
2023-07-27T14:52:05.343Z,27.92
2023-07-27T14:53:37.055Z,27.91
2023-07-27T14:55:09.383Z,27.75
2023-07-27T14:56:41.718Z,27.71
2023-07-27T14:59:57.852Z,27.59
2023-07-27T15:03:21.212Z,27.58
2023-07-27T15:04:54.039Z,27.58
2023-07-27T15:06:26.679Z,27.59
2023-07-27T15:07:58.459Z,27.65
2023-07-27T15:09:30.759Z,27.71
2023-07-27T15:12:37.136Z,27.67
2023-07-27T15:14:08.953Z,27.59
2023-07-27T15:15:41.149Z,27.51
2023-07-27T15:17:13.030Z,27.30
2023-07-27T15:18:44.868Z,27.16
2023-07-27T15:20:16.985Z,27.14
2023-07-27T15:21:49.118Z,27.04
2023-07-27T15:23:21.496Z,26.92
2023-07-27T15:24:53.339Z,26.75
2023-07-27T15:26:25.495Z,26.58
2023-07-27T15:27:58.235Z,26.47
2023-07-27T15:29:29.913Z,26.42
2023-07-27T15:31:02.042Z,26.44
2023-07-27T15:32:34.176Z,26.52
2023-07-27T15:34:06.498Z,26.61
2023-07-27T15:35:39.433Z,26.59
2023-07-27T15:37:11.434Z,26.58
2023-07-27T15:38:44.999Z,26.52
2023-07-27T15:40:19.006Z,26.46
2023-07-27T15:41:51.303Z,26.33
2023-07-27T15:43:22.884Z,26.29
2023-07-27T15:44:54.823Z,26.30
2023-07-27T15:46:27.126Z,26.31
2023-07-27T15:47:59.193Z,26.31
2023-07-27T15:49:31.375Z,26.29
2023-07-27T15:51:08.531Z,26.30
2023-07-27T15:52:42.031Z,26.28
2023-07-27T15:54:14.452Z,26.28
2023-07-27T15:55:46.797Z,26.20
2023-07-27T15:57:18.962Z,26.14
2023-07-27T15:58:51.127Z,26.13
2023-07-27T16:00:22.829Z,26.15
2023-07-27T16:01:54.494Z,26.15
2023-07-27T16:03:26.408Z,26.13
2023-07-27T16:04:58.169Z,26.10
2023-07-27T16:06:29.815Z,26.06
2023-07-27T16:08:01.596Z,26.00
2023-07-27T16:09:33.217Z,25.98
2023-07-27T16:11:09.904Z,25.95
2023-07-27T16:12:41.842Z,25.94
2023-07-27T16:14:13.651Z,25.85
2023-07-27T16:15:48.586Z,25.79
2023-07-27T16:17:23.250Z,25.66
2023-07-27T16:18:55.024Z,25.60
2023-07-27T16:20:26.583Z,25.61
2023-07-27T16:22:00.771Z,25.59
2023-07-27T16:23:34.078Z,25.51
2023-07-27T16:25:06.261Z,25.43
2023-07-27T16:26:37.987Z,25.41
2023-07-27T16:28:09.772Z,25.40
2023-07-27T16:29:41.825Z,25.39
2023-07-27T16:31:14.492Z,25.37
2023-07-27T16:32:47.013Z,25.21
2023-07-27T16:34:19.745Z,25.07
2023-07-27T16:35:51.674Z,24.98
2023-07-27T16:37:23.584Z,24.81
2023-07-27T16:38:55.252Z,24.71
2023-07-27T16:40:27.174Z,24.62
2023-07-27T16:42:00.958Z,24.47
2023-07-27T16:43:32.913Z,24.35
2023-07-27T16:45:04.848Z,24.19
2023-07-27T16:46:36.807Z,24.02
2023-07-27T16:48:08.844Z,23.93
2023-07-27T16:49:40.554Z,23.91
2023-07-27T16:51:12.153Z,23.82
2023-07-27T16:52:44.136Z,23.77
2023-07-27T16:54:15.876Z,23.79
2023-07-27T16:55:47.631Z,23.81
2023-07-27T16:57:19.588Z,23.84
2023-07-27T16:58:52.134Z,23.84
2023-07-27T17:00:24.434Z,23.84
2023-07-27T17:01:56.227Z,23.88
2023-07-27T17:03:28.682Z,23.96
2023-07-27T17:05:00.495Z,23.98
2023-07-27T17:06:32.763Z,23.96
2023-07-27T17:08:04.950Z,23.83
2023-07-27T17:09:37.982Z,23.65
2023-07-27T17:11:09.687Z,23.55
2023-07-27T17:12:41.667Z,23.44
2023-07-27T17:14:13.286Z,23.32
2023-07-27T17:15:44.985Z,23.24
2023-07-27T17:17:16.900Z,23.18
2023-07-27T17:18:53.190Z,23.14
2023-07-27T17:20:25.532Z,23.08
2023-07-27T17:21:57.692Z,23.04
2023-07-27T17:23:29.577Z,23.02
2023-07-27T17:25:01.954Z,22.97
2023-07-27T17:26:34.047Z,22.92
2023-07-27T17:28:06.743Z,22.86
2023-07-27T17:29:38.526Z,22.83
2023-07-27T17:31:10.490Z,22.75
2023-07-27T17:32:42.987Z,22.72
2023-07-27T17:34:15.277Z,22.71
2023-07-27T17:35:47.481Z,22.61
2023-07-27T17:37:19.362Z,22.46
2023-07-27T17:38:51.444Z,22.49
2023-07-27T17:40:23.728Z,22.53
2023-07-27T17:41:55.834Z,22.55
2023-07-27T17:43:27.853Z,22.53
2023-07-27T17:44:59.482Z,22.58
2023-07-27T17:46:32.062Z,22.60
2023-07-27T17:48:03.865Z,22.61
2023-07-27T17:49:35.595Z,22.58
2023-07-27T17:51:08.316Z,22.59
2023-07-27T17:52:39.908Z,22.52
2023-07-27T17:54:11.436Z,22.48
2023-07-27T17:55:43.480Z,22.43
2023-07-27T17:57:15.442Z,22.38
2023-07-27T17:58:47.084Z,22.35
2023-07-27T18:00:18.952Z,22.31
2023-07-27T18:01:51.020Z,22.24
2023-07-27T18:03:23.376Z,22.14
2023-07-27T18:04:55.436Z,22.03
2023-07-27T18:06:27.153Z,21.97
2023-07-27T18:07:59.204Z,21.91
2023-07-27T18:09:30.962Z,21.88
2023-07-27T18:11:08.723Z,21.86
2023-07-27T18:12:40.440Z,21.81
2023-07-27T18:14:12.343Z,21.78
2023-07-27T18:15:44.589Z,21.79
2023-07-27T18:17:16.213Z,21.79
2023-07-27T18:18:47.942Z,21.79
2023-07-27T18:20:20.119Z,21.79
2023-07-27T18:21:51.928Z,21.74
2023-07-27T18:23:24.378Z,21.62
2023-07-27T18:24:56.453Z,21.51
2023-07-27T18:26:28.905Z,21.42
2023-07-27T18:28:00.735Z,21.37
2023-07-27T18:29:32.519Z,21.40
2023-07-27T18:31:05.040Z,21.36
2023-07-27T18:32:39.984Z,21.30
2023-07-27T18:34:11.952Z,21.26
2023-07-27T18:35:43.610Z,21.27
2023-07-27T18:37:15.568Z,21.26
2023-07-27T18:38:47.306Z,21.22
2023-07-27T18:40:19.312Z,21.22
2023-07-27T18:41:51.986Z,21.19
2023-07-27T18:43:23.774Z,21.16
2023-07-27T18:44:56.200Z,21.15
2023-07-27T18:46:29.200Z,21.17
2023-07-27T18:48:04.196Z,21.13
2023-07-27T18:49:36.168Z,21.09
2023-07-27T18:51:09.313Z,21.03
2023-07-27T18:52:43.719Z,20.98
2023-07-27T18:54:15.646Z,20.92
2023-07-27T18:55:50.329Z,20.90
2023-07-27T18:57:22.439Z,20.88
2023-07-27T18:58:54.181Z,20.84
2023-07-27T19:00:26.616Z,20.78
2023-07-27T19:01:58.535Z,20.69
2023-07-27T19:03:30.425Z,20.64
2023-07-27T19:05:02.331Z,20.60
2023-07-27T19:06:34.142Z,20.49
2023-07-27T19:08:06.160Z,20.43
2023-07-27T19:09:37.925Z,20.42
2023-07-27T19:11:09.689Z,20.37
2023-07-27T19:12:41.315Z,20.29
2023-07-27T19:14:13.437Z,20.22
2023-07-27T19:15:48.950Z,20.10
2023-07-27T19:17:22.966Z,20.01
2023-07-27T19:18:55.000Z,19.89
2023-07-27T19:20:26.800Z,19.77
2023-07-27T19:21:58.603Z,19.67
2023-07-27T19:23:30.555Z,19.63
2023-07-27T19:25:02.473Z,19.60
2023-07-27T19:26:35.482Z,19.56
2023-07-27T19:28:10.845Z,19.55
2023-07-27T19:29:43.155Z,19.55
2023-07-27T19:31:21.802Z,19.55
2023-07-27T19:32:54.021Z,19.56
2023-07-27T19:34:26.207Z,19.60
2023-07-27T19:35:58.025Z,19.63
2023-07-27T19:37:29.942Z,19.64
2023-07-27T19:39:03.932Z,19.63
2023-07-27T19:40:36.116Z,19.64
2023-07-27T19:42:10.894Z,19.63
2023-07-27T19:43:42.718Z,19.67
2023-07-27T19:45:17.900Z,19.68
2023-07-27T19:46:50.504Z,19.69
2023-07-27T19:48:22.266Z,19.71
2023-07-27T19:50:04.595Z,19.70
2023-07-27T19:51:37.463Z,19.71
2023-07-27T19:53:09.339Z,19.66
2023-07-27T19:54:41.456Z,19.58
2023-07-27T19:56:15.223Z,19.54
2023-07-27T19:57:46.919Z,19.45
2023-07-27T19:59:18.946Z,19.36
2023-07-27T20:00:50.783Z,19.28
2023-07-27T20:02:22.924Z,19.16
2023-07-27T20:03:54.752Z,19.11
2023-07-27T20:05:27.021Z,19.10
2023-07-27T20:06:58.717Z,19.12
2023-07-27T20:08:45.094Z,19.11
2023-07-27T20:10:18.714Z,19.13
2023-07-27T20:11:50.582Z,19.15
2023-07-27T20:13:22.303Z,19.15
2023-07-27T20:14:54.168Z,19.14
2023-07-27T20:16:25.952Z,19.15
2023-07-27T20:17:57.968Z,19.14
2023-07-27T20:19:29.831Z,19.12